createdAt,value
2022-09-07T00:01:14.249Z,60.42
2022-09-07T00:03:40.910Z,60.58
2022-09-07T00:06:10.013Z,59.94
2022-09-07T00:08:37.449Z,60.37
2022-09-07T00:11:07.124Z,61.00
2022-09-07T00:13:36.628Z,61.40
2022-09-07T00:16:15.623Z,61.63
2022-09-07T00:18:46.007Z,61.22
2022-09-07T00:21:14.446Z,61.83
2022-09-07T00:23:41.493Z,61.87
2022-09-07T00:26:17.076Z,61.65
2022-09-07T00:28:43.942Z,62.14
2022-09-07T00:31:16.647Z,62.50
2022-09-07T00:33:43.674Z,62.60
2022-09-07T00:36:10.698Z,62.74
2022-09-07T00:38:38.142Z,62.21
2022-09-07T00:41:05.267Z,62.09
2022-09-07T00:43:38.129Z,62.19
2022-09-07T00:46:06.565Z,61.68
2022-09-07T00:48:43.404Z,61.90
2022-09-07T00:51:18.406Z,61.57
2022-09-07T00:53:54.332Z,61.42
2022-09-07T00:56:23.949Z,61.68
2022-09-07T00:58:51.340Z,61.96
2022-09-07T01:01:18.446Z,62.35
2022-09-07T01:03:49.734Z,61.68
2022-09-07T01:06:23.847Z,61.64
2022-09-07T01:08:51.054Z,61.74
2022-09-07T01:11:20.759Z,61.18
2022-09-07T01:13:49.291Z,61.89
2022-09-07T01:16:41.804Z,62.21
2022-09-07T01:19:30.760Z,61.55
2022-09-07T01:22:19.279Z,61.84
2022-09-07T01:25:02.876Z,61.65
2022-09-07T01:27:39.205Z,60.57
2022-09-07T01:30:12.146Z,61.04
2022-09-07T01:33:00.176Z,60.51
2022-09-07T01:35:34.518Z,60.33
2022-09-07T01:38:10.524Z,61.22
2022-09-07T01:41:04.806Z,60.90
2022-09-07T01:43:34.180Z,60.67
2022-09-07T01:46:05.445Z,60.97
2022-09-07T01:48:35.006Z,62.07
2022-09-07T01:51:04.138Z,62.92
2022-09-07T01:53:42.160Z,63.29
2022-09-07T01:56:18.969Z,65.09
2022-09-07T01:58:54.716Z,66.48
2022-09-07T02:01:35.331Z,66.38
2022-09-07T02:04:10.712Z,67.44
2022-09-07T02:07:00.708Z,66.84
2022-09-07T02:09:40.826Z,66.56
2022-09-07T02:12:17.078Z,67.10
2022-09-07T02:14:52.536Z,67.66
2022-09-07T02:17:24.861Z,67.71
2022-09-07T02:20:03.395Z,67.64
2022-09-07T02:22:35.689Z,68.18
2022-09-07T02:25:05.606Z,68.39
2022-09-07T02:27:40.782Z,68.60
2022-09-07T02:30:08.227Z,69.30
2022-09-07T02:32:34.836Z,70.23
2022-09-07T02:35:02.424Z,68.19
2022-09-07T02:37:31.526Z,67.43
2022-09-07T02:39:58.272Z,66.33
2022-09-07T02:42:25.279Z,66.68
2022-09-07T02:44:52.079Z,67.06
2022-09-07T02:47:37.666Z,67.77
2022-09-07T02:50:22.717Z,67.40
2022-09-07T02:53:29.053Z,67.81
2022-09-07T02:56:23.385Z,68.58
2022-09-07T02:59:03.779Z,68.54
2022-09-07T03:01:43.510Z,69.18
2022-09-07T03:04:46.649Z,69.25
2022-09-07T03:07:35.631Z,68.65
2022-09-07T03:10:06.007Z,68.64
2022-09-07T03:12:44.946Z,70.51
2022-09-07T03:15:14.016Z,70.38
2022-09-07T03:17:42.074Z,70.40
2022-09-07T03:20:09.490Z,70.94
2022-09-07T03:22:36.420Z,71.63
2022-09-07T03:25:04.312Z,73.37
2022-09-07T03:27:32.675Z,73.88
2022-09-07T03:30:00.112Z,74.24
2022-09-07T03:32:32.421Z,74.12
2022-09-07T03:35:00.120Z,74.33
2022-09-07T03:37:26.962Z,73.71
2022-09-07T03:39:53.817Z,72.58
2022-09-07T03:42:21.218Z,73.51
2022-09-07T03:44:49.730Z,72.84
2022-09-07T03:47:17.061Z,74.52
2022-09-07T03:49:43.958Z,75.38
2022-09-07T03:52:10.909Z,73.59
2022-09-07T03:54:39.642Z,73.33
2022-09-07T03:57:06.777Z,73.25
2022-09-07T03:59:33.646Z,73.73
2022-09-07T04:02:00.862Z,73.97
2022-09-07T04:04:28.141Z,74.17
2022-09-07T04:06:54.910Z,75.55
2022-09-07T04:09:21.776Z,75.51
2022-09-07T04:11:48.688Z,75.25
2022-09-07T04:14:16.067Z,75.45
2022-09-07T04:16:44.750Z,75.84
2022-09-07T04:19:11.644Z,75.26
2022-09-07T04:21:38.296Z,75.34
2022-09-07T04:24:05.278Z,75.41
2022-09-07T04:26:35.512Z,76.58
2022-09-07T04:29:04.017Z,76.88
2022-09-07T04:31:30.922Z,76.58
2022-09-07T04:33:57.673Z,76.66
2022-09-07T04:36:27.474Z,76.81
2022-09-07T04:38:56.367Z,77.16
2022-09-07T04:41:23.750Z,77.97
2022-09-07T04:43:54.601Z,78.45
2022-09-07T04:46:24.585Z,78.88
2022-09-07T04:48:53.355Z,79.51
2022-09-07T04:51:22.062Z,79.56
2022-09-07T04:53:50.895Z,80.28
2022-09-07T04:56:19.912Z,80.67
2022-09-07T04:58:47.589Z,80.39
2022-09-07T05:01:18.776Z,80.95
2022-09-07T05:03:46.147Z,81.40
2022-09-07T05:06:14.165Z,82.10
2022-09-07T05:08:46.228Z,80.76
2022-09-07T05:11:14.688Z,80.68
2022-09-07T05:13:41.860Z,80.21
2022-09-07T05:16:11.468Z,79.99
2022-09-07T05:18:38.338Z,81.14
2022-09-07T05:21:09.321Z,82.37
2022-09-07T05:23:36.521Z,82.52
2022-09-07T05:26:04.362Z,82.11
2022-09-07T05:28:31.341Z,81.20
2022-09-07T05:31:21.771Z,79.55
2022-09-07T05:36:44.263Z,79.60
2022-09-07T05:39:11.107Z,80.97
2022-09-07T05:41:37.988Z,81.76
2022-09-07T05:46:52.923Z,79.98
2022-09-07T05:49:19.582Z,78.20
2022-09-07T05:51:46.932Z,77.72
2022-09-07T05:54:13.860Z,78.33
2022-09-07T05:56:40.537Z,77.67
2022-09-07T05:59:07.204Z,77.57
2022-09-07T06:01:35.525Z,77.19
2022-09-07T06:04:02.518Z,76.30
2022-09-07T06:06:29.395Z,75.54
2022-09-07T06:08:57.679Z,75.57
2022-09-07T06:11:26.940Z,75.98
2022-09-07T06:13:53.619Z,76.46
2022-09-07T06:16:21.184Z,76.93
2022-09-07T06:18:49.665Z,76.89
2022-09-07T06:21:21.995Z,76.79
2022-09-07T06:23:49.838Z,76.40
2022-09-07T06:26:18.137Z,75.95
2022-09-07T06:28:49.443Z,74.42
2022-09-07T06:31:19.687Z,74.91
2022-09-07T06:33:50.296Z,75.46
2022-09-07T06:36:22.457Z,75.68
2022-09-07T06:38:50.729Z,75.31
2022-09-07T06:44:18.357Z,72.97
2022-09-07T06:49:31.755Z,71.63
2022-09-07T06:51:58.523Z,71.04
2022-09-07T06:57:11.913Z,70.81
2022-09-07T06:59:38.781Z,70.08
2022-09-07T07:02:07.150Z,68.69
2022-09-07T07:04:39.383Z,67.94
2022-09-07T07:07:10.740Z,67.72
2022-09-07T07:09:38.365Z,68.23
2022-09-07T07:12:05.072Z,67.69
2022-09-07T07:14:34.420Z,68.01
2022-09-07T07:17:03.449Z,68.34
2022-09-07T07:19:30.203Z,67.84
2022-09-07T07:24:43.484Z,66.30
2022-09-07T07:27:10.221Z,65.69
2022-09-07T07:29:36.874Z,65.88
2022-09-07T07:32:04.237Z,65.88
2022-09-07T07:34:30.944Z,64.72
2022-09-07T07:36:57.607Z,66.21
2022-09-07T07:42:12.244Z,64.30
2022-09-07T07:44:38.921Z,64.09
2022-09-07T07:47:05.714Z,63.92
2022-09-07T07:49:32.342Z,63.41
2022-09-07T07:54:45.687Z,62.18
2022-09-07T07:57:12.347Z,62.72
2022-09-07T07:59:39.433Z,62.81
2022-09-07T08:02:08.718Z,61.78
2022-09-07T08:04:36.119Z,61.54
2022-09-07T08:07:09.493Z,62.01
2022-09-07T08:09:41.057Z,61.42
2022-09-07T08:12:11.596Z,61.47
2022-09-07T08:14:42.214Z,61.74
2022-09-07T08:17:10.790Z,61.52
2022-09-07T08:19:37.773Z,60.82
2022-09-07T08:22:04.568Z,60.14
2022-09-07T08:24:32.059Z,60.65
2022-09-07T08:26:59.297Z,59.38
2022-09-07T08:29:27.131Z,59.77
2022-09-07T08:31:54.858Z,59.49
2022-09-07T08:34:21.973Z,59.66
2022-09-07T08:36:48.891Z,59.17
2022-09-07T08:39:16.056Z,59.78
2022-09-07T08:42:13.481Z,59.69
2022-09-07T08:45:15.946Z,59.46
2022-09-07T08:47:49.015Z,59.42
2022-09-07T08:50:39.485Z,59.76
2022-09-07T08:53:15.241Z,59.13
2022-09-07T08:55:56.984Z,57.18
2022-09-07T08:58:50.389Z,56.95
2022-09-07T09:01:34.590Z,56.43
2022-09-07T09:04:18.754Z,56.60
2022-09-07T09:07:04.174Z,55.63
2022-09-07T09:09:56.197Z,55.43
2022-09-07T09:12:55.517Z,56.41
2022-09-07T09:15:32.126Z,56.51
2022-09-07T09:18:04.795Z,55.47
2022-09-07T09:20:40.129Z,54.54
2022-09-07T09:23:13.379Z,54.04
2022-09-07T09:25:46.876Z,53.99
2022-09-07T09:28:13.646Z,54.39
2022-09-07T09:30:40.284Z,54.28
2022-09-07T09:33:16.922Z,53.99
2022-09-07T09:35:46.374Z,54.79
2022-09-07T09:38:43.560Z,54.92
2022-09-07T09:41:12.711Z,54.24
2022-09-07T09:43:51.899Z,54.61
2022-09-07T09:46:29.198Z,54.20
2022-09-07T09:48:57.186Z,54.41
2022-09-07T09:54:26.019Z,55.33
2022-09-07T09:56:53.044Z,54.19
2022-09-07T10:05:43.037Z,54.42
2022-09-07T10:08:31.299Z,53.85
2022-09-07T10:11:09.706Z,53.88
2022-09-07T10:13:42.620Z,53.58
2022-09-07T10:16:10.543Z,53.75
2022-09-07T10:18:54.231Z,52.88
2022-09-07T10:21:26.906Z,52.95
2022-09-07T10:24:15.621Z,52.72
2022-09-07T10:26:47.307Z,53.11
2022-09-07T10:29:23.656Z,52.97
2022-09-07T10:32:08.702Z,53.30
2022-09-07T10:34:45.883Z,53.04
2022-09-07T10:37:52.717Z,52.44
2022-09-07T10:40:39.451Z,52.75
2022-09-07T10:43:34.198Z,53.71
2022-09-07T10:49:27.961Z,52.05
2022-09-07T10:52:09.598Z,51.48
2022-09-07T10:54:54.501Z,51.91
2022-09-07T10:57:53.898Z,52.96
2022-09-07T11:00:22.523Z,51.96
2022-09-07T11:03:29.060Z,51.48
2022-09-07T11:06:25.459Z,52.06
2022-09-07T11:09:23.041Z,50.96
2022-09-07T11:12:16.888Z,51.78
2022-09-07T11:14:53.343Z,52.08
2022-09-07T11:17:26.373Z,52.08
2022-09-07T11:20:09.543Z,51.52
2022-09-07T11:22:46.449Z,51.60
2022-09-07T11:25:32.055Z,49.73
2022-09-07T11:28:05.133Z,50.00
2022-09-07T11:30:37.174Z,50.12
2022-09-07T11:33:14.417Z,49.32
2022-09-07T11:35:55.374Z,48.86
2022-09-07T11:38:35.493Z,48.96
2022-09-07T11:41:15.809Z,48.51
2022-09-07T11:44:25.838Z,48.93
2022-09-07T11:47:03.106Z,48.68
2022-09-07T11:49:30.807Z,49.97
2022-09-07T11:52:06.604Z,48.36
2022-09-07T11:54:54.951Z,49.32
2022-09-07T11:57:36.700Z,48.13
2022-09-07T12:00:20.294Z,47.47
2022-09-07T12:03:27.543Z,46.10
2022-09-07T12:05:57.447Z,45.83
2022-09-07T12:08:58.417Z,45.83
2022-09-07T12:11:52.730Z,45.88
2022-09-07T12:14:27.401Z,45.97
2022-09-07T12:17:31.276Z,45.75
2022-09-07T12:20:15.140Z,45.52
2022-09-07T12:23:05.468Z,46.08
2022-09-07T12:25:33.862Z,46.64
2022-09-07T12:28:00.904Z,46.80
2022-09-07T12:30:29.042Z,46.84
2022-09-07T12:32:57.496Z,46.82
2022-09-07T12:35:37.142Z,45.62
2022-09-07T12:38:25.827Z,45.91
2022-09-07T12:41:00.497Z,43.68
2022-09-07T12:43:42.558Z,43.35
2022-09-07T12:46:19.667Z,43.52
2022-09-07T12:49:11.526Z,42.78
2022-09-07T12:54:30.233Z,43.58
2022-09-07T12:59:50.372Z,44.02
2022-09-07T13:02:23.118Z,42.02
2022-09-07T13:05:21.383Z,43.81
2022-09-07T13:08:09.861Z,40.73
2022-09-07T13:10:47.093Z,40.91
2022-09-07T13:14:01.903Z,41.39
2022-09-07T13:16:11.720Z,41.63
2022-09-07T13:18:41.071Z,41.33
2022-09-07T13:21:07.828Z,40.38
2022-09-07T13:23:39.545Z,39.30
2022-09-07T13:26:09.106Z,38.77
2022-09-07T13:28:52.306Z,36.62
2022-09-07T13:31:45.265Z,37.66
2022-09-07T13:34:30.989Z,36.64
2022-09-07T13:36:58.788Z,36.06
2022-09-07T13:39:26.020Z,35.42
2022-09-07T13:41:56.134Z,36.00
2022-09-07T13:44:26.988Z,37.09
2022-09-07T13:47:40.279Z,36.15
2022-09-07T13:50:36.270Z,35.98
2022-09-07T13:53:38.929Z,36.88
2022-09-07T13:56:26.818Z,35.24
2022-09-07T13:58:55.112Z,34.92
2022-09-07T14:01:24.494Z,35.15
2022-09-07T14:03:54.773Z,34.22
2022-09-07T14:06:21.380Z,34.46
2022-09-07T14:08:57.556Z,33.79
2022-09-07T14:11:38.995Z,34.16
2022-09-07T14:14:25.518Z,34.58
2022-09-07T14:16:52.124Z,34.69
2022-09-07T14:19:25.720Z,34.49
2022-09-07T14:22:04.773Z,34.43
2022-09-07T14:24:37.262Z,35.14
2022-09-07T14:27:05.952Z,35.61
2022-09-07T14:29:35.484Z,34.96
2022-09-07T14:32:04.403Z,34.17
2022-09-07T14:34:34.688Z,34.12
2022-09-07T14:37:05.893Z,35.07
2022-09-07T14:39:38.000Z,35.17
2022-09-07T14:42:05.174Z,34.11
2022-09-07T14:44:38.766Z,35.00
2022-09-07T14:47:33.873Z,34.56
2022-09-07T14:50:05.906Z,34.95
2022-09-07T14:53:33.217Z,34.70
2022-09-07T14:55:34.827Z,34.08
2022-09-07T14:58:13.223Z,34.48
2022-09-07T15:00:41.231Z,33.95
2022-09-07T15:03:36.332Z,34.81
2022-09-07T15:06:03.504Z,35.86
2022-09-07T15:08:48.542Z,32.40
2022-09-07T15:11:35.920Z,32.06
2022-09-07T15:14:17.510Z,31.90
2022-09-07T15:16:45.097Z,32.17
2022-09-07T15:19:18.504Z,32.88
2022-09-07T15:21:45.480Z,33.28
2022-09-07T15:24:12.230Z,34.02
2022-09-07T15:29:29.140Z,34.01
2022-09-07T15:32:03.533Z,34.53
2022-09-07T15:34:32.175Z,34.50
2022-09-07T15:37:00.267Z,35.07
2022-09-07T15:39:29.752Z,35.53
2022-09-07T15:41:58.229Z,34.85
2022-09-07T15:44:28.405Z,35.40
2022-09-07T15:49:49.500Z,36.47
2022-09-07T15:52:17.857Z,36.85
2022-09-07T15:54:44.665Z,36.78
2022-09-07T15:59:58.307Z,37.44
2022-09-07T16:05:12.088Z,37.37
2022-09-07T16:10:26.496Z,37.29
2022-09-07T16:13:01.934Z,37.60
2022-09-07T16:15:30.628Z,38.11
2022-09-07T16:17:57.432Z,38.20
2022-09-07T16:20:24.058Z,38.19
2022-09-07T16:25:39.233Z,38.11
2022-09-07T16:28:07.017Z,38.35
2022-09-07T16:30:34.173Z,38.52
2022-09-07T16:33:00.903Z,38.83
2022-09-07T16:35:27.647Z,39.25
2022-09-07T16:40:41.976Z,39.81
2022-09-07T16:43:09.858Z,39.51
2022-09-07T16:48:23.368Z,39.64
2022-09-07T16:51:00.389Z,39.89
2022-09-07T16:53:29.963Z,40.36
2022-09-07T16:56:04.390Z,40.28
2022-09-07T16:58:38.373Z,40.48
2022-09-07T17:01:10.210Z,40.38
2022-09-07T17:03:38.243Z,40.33
2022-09-07T17:06:07.367Z,40.58
2022-09-07T17:08:35.320Z,40.60
2022-09-07T17:11:07.684Z,40.97
2022-09-07T17:13:36.413Z,41.01
2022-09-07T17:16:36.167Z,41.68
2022-09-07T17:21:52.645Z,41.68
2022-09-07T17:24:19.795Z,42.01
2022-09-07T17:26:46.720Z,42.35
2022-09-07T17:29:13.567Z,42.44
2022-09-07T17:34:28.418Z,43.08
2022-09-07T17:36:55.676Z,43.18
2022-09-07T17:39:22.350Z,43.26
2022-09-07T17:41:52.644Z,43.08
2022-09-07T17:44:21.446Z,43.60
2022-09-07T17:46:48.068Z,43.01
2022-09-07T17:49:16.345Z,42.67
2022-09-07T17:51:44.186Z,43.03
2022-09-07T17:54:16.585Z,43.33
2022-09-07T17:56:44.013Z,43.44
2022-09-07T18:02:00.962Z,43.49
2022-09-07T18:04:28.663Z,43.78
2022-09-07T18:06:55.502Z,43.55
2022-09-07T18:09:22.219Z,43.43
2022-09-07T18:11:50.299Z,43.58
2022-09-07T18:14:18.497Z,43.86
2022-09-07T18:16:46.822Z,43.96
2022-09-07T18:19:14.709Z,44.05
2022-09-07T18:21:42.759Z,44.07
2022-09-07T18:24:16.822Z,43.94
2022-09-07T18:26:44.686Z,43.52
2022-09-07T18:29:28.214Z,43.46
2022-09-07T18:31:58.430Z,43.20
2022-09-07T18:34:25.514Z,44.20
2022-09-07T18:36:52.284Z,44.61
2022-09-07T18:39:18.936Z,45.28
2022-09-07T18:41:45.899Z,45.39
2022-09-07T18:47:00.552Z,45.51
2022-09-07T18:49:27.269Z,44.48
2022-09-07T18:54:43.878Z,44.84
2022-09-07T18:57:10.546Z,44.73
2022-09-07T18:59:37.175Z,44.77
2022-09-07T19:02:06.071Z,44.83
2022-09-07T19:07:23.985Z,45.26
2022-09-07T19:09:54.215Z,45.36
2022-09-07T19:12:20.854Z,45.96
2022-09-07T19:14:47.487Z,45.98
2022-09-07T19:17:14.127Z,46.46
2022-09-07T19:19:42.138Z,46.33
2022-09-07T19:22:08.808Z,46.23
2022-09-07T19:24:37.442Z,45.68
2022-09-07T19:27:04.385Z,46.10
2022-09-07T19:29:31.113Z,45.62
2022-09-07T19:32:07.762Z,45.30
2022-09-07T19:34:41.485Z,45.27
2022-09-07T19:37:10.518Z,45.58
2022-09-07T19:39:37.320Z,45.71
2022-09-07T19:42:05.566Z,45.52
2022-09-07T19:44:32.779Z,45.96
2022-09-07T19:47:00.662Z,46.01
2022-09-07T19:49:27.903Z,46.16
2022-09-07T19:51:54.947Z,45.55
2022-09-07T19:54:22.258Z,45.66
2022-09-07T19:56:49.084Z,45.92
2022-09-07T19:59:17.975Z,46.36
2022-09-07T20:01:47.208Z,46.33
2022-09-07T20:04:20.794Z,45.71
2022-09-07T20:06:50.101Z,45.67
2022-09-07T20:09:18.687Z,45.14
2022-09-07T20:11:47.379Z,45.52
2022-09-07T20:14:15.676Z,45.41
2022-09-07T20:16:42.419Z,44.82
2022-09-07T20:19:11.501Z,44.78
2022-09-07T20:21:38.361Z,44.82
2022-09-07T20:24:05.692Z,45.10
2022-09-07T20:26:32.704Z,45.75
2022-09-07T20:29:23.347Z,45.94
2022-09-07T20:31:47.389Z,45.89
2022-09-07T20:34:14.564Z,45.95
2022-09-07T20:36:41.629Z,46.39
2022-09-07T20:39:12.477Z,45.54
2022-09-07T20:41:39.242Z,45.61
2022-09-07T20:44:05.942Z,45.80
2022-09-07T20:46:35.399Z,46.00
2022-09-07T20:49:02.369Z,45.78
2022-09-07T20:51:29.155Z,45.73
2022-09-07T20:53:56.088Z,45.36
2022-09-07T20:56:25.782Z,45.83
2022-09-07T20:58:57.789Z,46.69
2022-09-07T21:01:24.996Z,46.61
2022-09-07T21:03:54.566Z,47.10
2022-09-07T21:06:22.788Z,46.83
2022-09-07T21:08:50.494Z,46.30
2022-09-07T21:11:29.674Z,46.47
2022-09-07T21:13:58.233Z,46.37
2022-09-07T21:16:25.592Z,46.74
2022-09-07T21:18:55.227Z,46.51
2022-09-07T21:21:23.647Z,46.49
2022-09-07T21:24:01.383Z,46.17
2022-09-07T21:26:28.831Z,46.72
2022-09-07T21:29:04.928Z,47.67
2022-09-07T21:31:34.307Z,47.08
2022-09-07T21:34:02.469Z,47.34
2022-09-07T21:36:29.486Z,47.72
2022-09-07T21:38:56.153Z,47.55
2022-09-07T21:41:24.643Z,48.05
2022-09-07T21:44:02.436Z,47.65
2022-09-07T21:46:31.473Z,47.78
2022-09-07T21:48:59.403Z,47.87
2022-09-07T21:51:27.508Z,48.01
2022-09-07T21:53:59.284Z,48.05
2022-09-07T21:56:28.191Z,48.40
2022-09-07T21:58:56.402Z,48.23
2022-09-07T22:01:24.926Z,47.56
2022-09-07T22:04:00.995Z,47.61
2022-09-07T22:06:28.663Z,47.90
2022-09-07T22:08:55.851Z,48.11
2022-09-07T22:11:24.110Z,48.25
2022-09-07T22:13:54.925Z,47.99
2022-09-07T22:16:21.980Z,47.85
2022-09-07T22:18:48.929Z,47.69
2022-09-07T22:21:18.648Z,47.52
2022-09-07T22:23:50.928Z,47.77
2022-09-07T22:26:20.430Z,48.24
2022-09-07T22:28:47.318Z,48.96
2022-09-07T22:31:15.609Z,49.64
2022-09-07T22:33:43.307Z,50.04
2022-09-07T22:36:19.135Z,50.01
2022-09-07T22:38:47.884Z,48.84
2022-09-07T22:41:17.515Z,49.66
2022-09-07T22:43:45.203Z,49.73
2022-09-07T22:46:12.961Z,49.68
2022-09-07T22:48:41.023Z,50.10
2022-09-07T22:51:08.989Z,50.76
2022-09-07T22:53:38.102Z,51.17
2022-09-07T22:56:16.514Z,51.56
2022-09-07T22:58:48.967Z,51.51
2022-09-07T23:01:16.171Z,51.93
2022-09-07T23:03:44.556Z,51.41
2022-09-07T23:06:23.443Z,51.72
2022-09-07T23:08:51.417Z,51.92
2022-09-07T23:11:18.668Z,51.17
2022-09-07T23:13:45.720Z,51.11
2022-09-07T23:16:12.445Z,51.46
2022-09-07T23:18:42.828Z,51.73
2022-09-07T23:21:10.270Z,51.44
2022-09-07T23:23:37.000Z,50.93
2022-09-07T23:26:05.475Z,50.95
2022-09-07T23:28:32.964Z,50.78
2022-09-07T23:30:59.722Z,51.25
2022-09-07T23:33:27.422Z,53.09
2022-09-07T23:35:56.446Z,53.70
2022-09-07T23:38:23.994Z,54.28
2022-09-07T23:40:50.808Z,54.87
2022-09-07T23:43:17.400Z,55.20
2022-09-07T23:45:44.119Z,55.27
2022-09-07T23:48:10.835Z,55.37
2022-09-07T23:50:37.468Z,55.58
2022-09-07T23:53:04.179Z,55.80
2022-09-07T23:55:30.890Z,56.16
2022-09-07T23:57:57.448Z,57.24
